Weather


ICAO METAR
KAPA KAPA 070453Z 22010KT 10SM FEW130 02/M09 A3000 RMK AO2 SLP168 T00171089
KASE KASE 070503Z AUTO 00000KT SCT013 BKN060 OVC100 M05/M06 A3008 RMK AO2 T10501056 $
KBJC KBJC 070535Z AUTO 05003KT 10SM CLR 02/M10 A3002 RMK AO2
KBKF KBKF 070458Z 13003KT 10SM FEW130 02/M11 A3000 RMK AO2A SLP151 T00181110
KCFO KCFO 070535Z AUTO 18007KT 10SM CLR M02/M11 A3003 RMK AO2 T10201110
KCOS KCOS 070454Z 04005KT 10SM CLR 01/M08 A3003 RMK AO2 SLP186 T00111083 $
KCPR KCPR 070453Z AUTO 25009KT 10SM CLR M03/M11 A2994 RMK AO2 SLP164 T10281106
KCYS KCYS 070453Z AUTO 27011KT 10SM CLR M01/M12 A2997 RMK AO2 SLP160 T10061122
KDEN KDEN 070453Z 17007KT 10SM FEW160 M01/M11 A3001 RMK AO2 SLP159 T10111106
KEGE KEGE 070456Z AUTO 10006KT 10SM BKN037 M04/M06 A3013 RMK AO2 SLP114 T10441061 FZRANO
KFCS KFCS 070455Z AUTO 19004KT 10SM CLR 03/M07 A3000 RMK AO2 SLP190 T00311071 PNO $
KFMN KFMN 070453Z AUTO 00000KT 7SM RA SCT024 OVC039 06/02 A3008 RMK AO2 RAB01E15B33 SLP180 P0001 T00560017
KFNL KFNL 070456Z 34005KT 10SM CLR M02/M08 A3001 RMK AO2 SLP172 T10171083 FZRANO
KGJT KGJT 070453Z 10010KT 10SM FEW120 02/00 A3010 RMK AO2 SLP194 T00220000
KGUR KGUR 070455Z AUTO 31004KT 10SM CLR 03/M10 A2993 RMK AO2 SLP153 T00251104
KPUB KPUB 070453Z 27005KT 10SM CLR M03/M10 A3001 RMK AO2 SLP182 T10331100
KRAP KRAP 070543Z AUTO 04008KT 10SM SCT006 BKN019 M10/M11 A2996 RMK AO2 T11001111
KRCA KRCA 070523Z AUTO 36007KT 10SM BKN004 BKN019 M09/M11 A2992 RMK AO2 SLP182 PWINO $

Surface Data
Click here.

This is a composite map contain the following analyses: radar summary (color filled areas), surface data plot (composite station model), frontal locations (in various bold lines) and pressure contours (in thin blue lines).